• Join FlightAware (Why Join?)
  • Login
  • US Flag 
05:36AM EST


 

Airport Tracker/Info


-or-


 

Live Flight TrackerFlight Track Log ✈ TAM3181 ✈ 13-May-2013 ✈ SBBR / BSB - SBGR / GRU

Flight Track Log - Related Links

Times and Time Zones

All times are in EDT time to prevent confusion due to time zone crossing. See the TAM3181 flight status page for this flight to view local times or setup timezone preferences in your user account.

Time Position Orientation Groundspeed Altitude Reporting Facility
EDT Latitude Longitude Course Direction KTS MPH feet Rate Location/Type
04:26AM -15.8780 -47.8900 90° East 175 201 5,100  Level FlightAware
04:26AM -15.8760 -47.8680 85° East 162 186 5,300 1,500 Climbing FlightAware
04:28AM -16.0110 -47.8340 166° South 303 349 8,700 1,980 Climbing FlightAware
04:29AM -16.1060 -47.8080 165° South 326 375 11,100 2,160 Climbing FlightAware
04:30AM -16.1810 -47.7870 165° South 368 423 12,700 2,400 Climbing FlightAware
04:31AM -16.2590 -47.7650 165° South 369 425 14,700 3,060 Climbing FlightAware
04:31AM -16.3120 -47.7500 165° South 347 399 16,800 3,300 Climbing FlightAware
04:32AM -16.3760 -47.7310 164° South 321 369 19,100 1,920 Climbing FlightAware
04:33AM -16.4400 -47.7140 166° South 352 405 19,600 660 Climbing FlightAware
04:34AM -16.5540 -47.6810 164° South 392 451 20,400 540 Climbing FlightAware
04:35AM -16.6340 -47.6580 165° South 392 451 20,700 180 Climbing FlightAware
04:35AM -16.6930 -47.6400 164° South 392 451 20,700  Level FlightAware
04:36AM -16.7520 -47.6220 164° South 392 451 20,700  Level FlightAware
04:37AM -16.8110 -47.6050 165° South 392 451 20,700  Level FlightAware
04:38AM -16.8850 -47.5820 163° South 392 451 20,700 1,320 Level FlightAware
04:40AM -17.0608 -47.5533 171° South  Level Estimated
04:41AM -17.1502 -47.5387 171° South  Level Estimated
04:42AM -17.2396 -47.5240 171° South  Level Estimated
04:43AM -17.3290 -47.5094 171° South  Level Estimated
04:44AM -17.4184 -47.4947 171° South  Level Estimated
04:45AM -17.5430 -47.4742 171° South  Level Estimated
04:46AM -17.6676 -47.4537 171° South  Level Estimated
04:47AM -17.7921 -47.4332 171° South  Level Estimated
04:47AM -18.0630 -47.3250 171° South 459 528 34,100  Level FlightAware
04:47AM -18.1600 -47.3090 171° South 453 521 35,000 1,200 Climbing FlightAware
04:48AM -18.2530 -47.2940 171° South 446 513 35,900 660 Climbing FlightAware
04:49AM -18.3260 -47.2830 172° South 439 505 36,000 60 Climbing FlightAware
04:49AM -18.4140 -47.2690 171° South 440 506 36,000  Level FlightAware
04:50AM -18.5050 -47.2540 171° South 443 510 36,000  Level FlightAware
04:51AM -18.5870 -47.2410 171° South 442 509 36,000  Level FlightAware
04:52AM -18.6770 -47.2270 172° South 442 509 36,000  Level FlightAware
04:52AM -18.7590 -47.2140 171° South 443 510 36,000  Level FlightAware
04:53AM -18.8500 -47.1990 171° South 442 509 36,000  Level FlightAware
04:54AM -18.9260 -47.1870 172° South 443 510 36,000  Level FlightAware
04:54AM -19.0060 -47.1720 170° South 444 511 36,000  Level FlightAware
04:55AM -19.1050 -47.1540 170° South 444 511 36,000  Level FlightAware
04:56AM -19.1790 -47.1410 171° South 443 510 36,000  Level FlightAware
04:56AM -19.2750 -47.1440 182° South 438 504 36,000  Level FlightAware
04:57AM -19.3590 -47.1500 184° South 439 505 36,000  Level FlightAware
04:58AM -19.4350 -47.1550 184° South 441 507 36,000  Level FlightAware
04:59AM -19.5320 -47.1620 184° South 441 507 36,000  Level FlightAware
04:59AM -19.6100 -47.1680 184° South 439 505 36,000  Level FlightAware
05:00AM -19.7040 -47.1750 184° South 439 505 36,000  Level FlightAware
05:01AM -19.7850 -47.1810 184° South 441 507 36,000  Level FlightAware
05:03AM -20.0187 -47.1365 170° South  Level Estimated
05:03AM -20.0260 -47.1990 170° South 443 510 36,000  Level FlightAware
05:04AM -20.1550 -47.2080 184° South 441 507 36,000  Level FlightAware
05:04AM -20.2490 -47.2150 184° South 438 504 36,000  Level FlightAware
05:05AM -20.3320 -47.2210 184° South 436 502 36,000  Level FlightAware
05:06AM -20.4200 -47.2280 184° South 436 502 36,000  Level FlightAware
05:06AM -20.4990 -47.2340 184° South 436 502 36,000  Level FlightAware
05:07AM -20.6100 -47.2410 183° South 437 503 36,000  Level FlightAware
05:08AM -20.7010 -47.2490 185° South 438 504 36,000  Level FlightAware
05:09AM -20.7840 -47.2550 184° South 438 504 36,000  Level FlightAware
05:09AM -20.8600 -47.2610 184° South 438 504 36,000  Level FlightAware
05:10AM -20.9550 -47.2670 183° South 439 505 36,000  Level FlightAware
05:11AM -21.0380 -47.2730 184° South 438 504 36,000  Level FlightAware
05:12AM -21.1190 -47.2800 185° South 438 504 36,000  Level FlightAware
05:12AM -21.1940 -47.2850 184° South 439 505 36,000  Level FlightAware
05:13AM -21.2850 -47.2920 184° South 440 506 36,000  Level FlightAware
05:14AM -21.4080 -47.2800 175° South 451 519 36,000  Level FlightAware
05:15AM -21.5350 -47.2600 172° South 448 516 36,000 -480 Level FlightAware
05:16AM -21.6750 -47.2390 172° South 454 522 35,000 -1,080 Descending FlightAware
05:17AM -21.7420 -47.2280 171° South 448 516 34,000 -2,100 Descending FlightAware
05:18AM -21.8520 -47.2110 172° South 443 510 32,100 -2,160 Descending FlightAware
05:18AM -21.9390 -47.1900 167° South 441 507 30,800 -2,280 Descending FlightAware
05:19AM -22.0130 -47.1720 167° South 440 506 29,300 -2,100 Descending FlightAware
05:20AM -22.1040 -47.1510 168° South 436 502 27,900 -1,800 Descending FlightAware
05:20AM -22.1740 -47.1350 168° South 430 495 26,800 -2,040 Descending FlightAware
05:21AM -22.2610 -47.1150 168° South 428 493 25,200 -2,100 Descending FlightAware
05:22AM -22.3220 -47.1010 168° South 421 484 24,200 -1,920 Descending FlightAware
05:22AM -22.4060 -47.0820 168° South 408 470 22,800 -1,920 Descending FlightAware
05:23AM -22.4830 -47.0640 168° South 398 458 21,500 -1,800 Descending FlightAware
05:24AM -22.5400 -47.0500 167° South 390 449 20,600 -2,100 Descending FlightAware
05:24AM -22.6270 -47.0260 166° South 394 453 18,600 -2,280 Descending FlightAware
05:25AM -22.6910 -47.0050 163° South 385 443 17,400 -3,060 Descending FlightAware
05:26AM -22.7740 -46.9790 164° South 406 467 14,300 -3,540 Descending FlightAware
05:27AM -22.8500 -46.9560 164° South 410 472 12,100 -3,000 Descending FlightAware
05:27AM -22.9250 -46.9320 164° South 401 461 10,300 -1,680 Descending FlightAware
05:28AM -22.9930 -46.9110 164° South 354 407 9,900 -600 Descending FlightAware
05:28AM -23.0430 -46.8950 164° South 323 372 9,600 -600 Descending FlightAware
05:29AM -23.0690 -46.8830 157° South 306 352 9,400 -1,020 Descending FlightAware
05:29AM -23.1160 -46.8590 155° Southeast 302 348 8,600 -1,320 Descending FlightAware
05:30AM -23.1400 -46.8470 155° Southeast 297 342 8,200 -1,440 Descending FlightAware
05:30AM -23.1800 -46.8200 148° Southeast 295 339 7,300 -1,440 Descending FlightAware
05:31AM -23.2160 -46.7970 150° Southeast 285 328 6,700 -1,140 Descending FlightAware
05:31AM -23.2440 -46.7790 149° Southeast 277 319 6,300 -960 Descending FlightAware
05:32AM -23.2700 -46.7620 149° Southeast 272 313 5,900 -600 Descending FlightAware
05:32AM -23.3020 -46.7410 149° Southeast 280 322 5,800 -120 Descending FlightAware
05:33AM -23.3310 -46.7220 149° Southeast 283 326 5,800 -600 Level FlightAware
05:33AM -23.3670 -46.6980 149° Southeast 281 323 5,300 -540 Descending FlightAware
05:34AM -23.3970 -46.6790 150° Southeast 252 290 5,300  Level FlightAware
05:34AM -23.4120 -46.6680 146° Southeast 239 275 5,300 -180 Level FlightAware
05:34AM -23.4330 -46.6550 150° Southeast 235 270 5,200 -720 Descending FlightAware
05:35AM -23.4590 -46.6380 149° Southeast 232 267 4,700 -840 Descending FlightAware
05:35AM -23.4700 -46.6140 117° Southeast 215 247 4,500 -840 Descending FlightAware
05:35AM -23.4640 -46.5820 78° East 200 230 4,000 -1,200 Descending FlightAware
05:36AM -23.4580 -46.5580 75° East 176 203 3,500 -1,020 Descending FlightAware
05:36AM -23.4520 -46.5340 75° East 147 169 3,100 -780 Descending FlightAware
05:37AM -23.4470 -46.5170 72° East 140 161 2,800 -660 Descending FlightAware
05:37AM -23.4420 -46.4980 74° East 136 157 2,500 -720 Descending FlightAware
05:38AM -23.4390 -46.4890 70° East 139 160 2,300 -840 Descending FlightAware